createdAt,value
2019-03-16T00:00:54.444Z,98665.34
2019-03-16T00:01:58.490Z,98659.97
2019-03-16T00:03:02.727Z,98667.53
2019-03-16T00:04:06.763Z,98665.87
2019-03-16T00:05:10.878Z,98666.19
2019-03-16T00:06:14.937Z,98667.81
2019-03-16T00:07:32.194Z,98669.16
2019-03-16T00:08:23.386Z,98676.44
2019-03-16T00:09:27.441Z,98678.06
2019-03-16T00:10:31.515Z,98681.56
2019-03-16T00:11:35.603Z,98679.41
2019-03-16T00:12:39.639Z,98683.72
2019-03-16T00:13:43.659Z,98678.31
2019-03-16T00:14:47.655Z,98681.33
2019-03-16T00:15:51.682Z,98682.67
2019-03-16T00:16:55.997Z,98682.67
2019-03-16T00:18:00.072Z,98678.36
2019-03-16T00:19:04.320Z,98688.85
2019-03-16T00:20:08.593Z,98689.37
2019-03-16T00:21:12.615Z,98687.51
2019-03-16T00:22:16.786Z,98691.54
2019-03-16T00:23:20.827Z,98692.59
2019-03-16T00:24:25.441Z,98693.61
2019-03-16T00:25:29.586Z,98698.48
2019-03-16T00:26:33.607Z,98694.95
2019-03-16T00:27:37.753Z,98697.10
2019-03-16T00:28:41.755Z,98696.21
2019-03-16T00:29:45.797Z,98693.84
2019-03-16T00:30:49.874Z,98697.34
2019-03-16T00:31:53.951Z,98701.94
2019-03-16T00:32:58.072Z,98694.58
2019-03-16T00:34:08.662Z,98702.71
2019-03-16T00:35:12.766Z,98700.31
2019-03-16T00:36:16.839Z,98708.90
2019-03-16T00:37:20.925Z,98708.94
2019-03-16T00:38:25.116Z,98703.57
2019-03-16T00:39:29.171Z,98707.89
2019-03-16T00:40:33.212Z,98712.20
2019-03-16T00:41:37.242Z,98709.23
2019-03-16T00:42:41.355Z,98713.55
2019-03-16T00:43:45.444Z,98718.34
2019-03-16T00:44:49.445Z,98719.97
2019-03-16T00:45:53.462Z,98715.94
2019-03-16T00:46:57.533Z,98704.22
2019-03-16T00:48:01.611Z,98713.83
2019-03-16T00:49:05.760Z,98722.41
2019-03-16T00:50:09.922Z,98722.70
2019-03-16T00:51:13.957Z,98726.68
2019-03-16T00:52:18.058Z,98717.86
2019-03-16T00:53:22.181Z,98719.20
2019-03-16T00:54:26.325Z,98730.55
2019-03-16T00:55:30.364Z,98724.04
2019-03-16T00:56:34.431Z,98730.70
2019-03-16T00:57:38.524Z,98728.59
2019-03-16T00:58:42.553Z,98733.52
2019-03-16T00:59:46.707Z,98734.11
2019-03-16T01:00:50.734Z,98735.98
2019-03-16T01:01:54.917Z,98741.80
2019-03-16T01:02:58.968Z,98732.17
2019-03-16T01:04:03.024Z,98735.66
2019-03-16T01:05:07.680Z,98739.70
2019-03-16T01:06:11.748Z,98737.33
2019-03-16T01:07:15.869Z,98734.33
2019-03-16T01:08:19.915Z,98738.14
2019-03-16T01:09:23.985Z,98739.41
2019-03-16T01:10:28.074Z,98738.30
2019-03-16T01:11:32.113Z,98748.56
2019-03-16T01:12:36.190Z,98744.03
2019-03-16T01:13:40.224Z,98747.66
2019-03-16T01:14:44.233Z,98741.34
2019-03-16T01:15:48.277Z,98747.94
2019-03-16T01:16:52.292Z,98743.78
2019-03-16T01:17:56.347Z,98746.76
2019-03-16T01:19:00.451Z,98746.38
2019-03-16T01:20:04.713Z,98740.39
2019-03-16T01:21:08.809Z,98749.97
2019-03-16T01:22:12.872Z,98753.70
2019-03-16T01:23:17.784Z,98751.56
2019-03-16T01:24:21.029Z,98748.45
2019-03-16T01:25:25.050Z,98749.22
2019-03-16T01:26:29.150Z,98752.09
2019-03-16T01:27:33.186Z,98754.77
2019-03-16T01:28:37.193Z,98753.95
2019-03-16T01:29:41.210Z,98753.67
2019-03-16T01:30:45.273Z,98759.85
2019-03-16T01:31:49.376Z,98748.17
2019-03-16T01:32:53.405Z,98755.59
2019-03-16T01:33:57.419Z,98765.95
2019-03-16T01:35:01.416Z,98758.95
2019-03-16T01:36:05.478Z,98763.50
2019-03-16T01:37:09.687Z,98761.11
2019-03-16T01:38:13.721Z,98762.16
2019-03-16T01:39:17.846Z,98762.69
2019-03-16T01:40:21.943Z,98762.11
2019-03-16T01:41:25.986Z,98765.38
2019-03-16T01:42:30.122Z,98764.61
2019-03-16T01:43:34.151Z,98753.77
2019-03-16T01:44:38.152Z,98765.14
2019-03-16T01:45:42.195Z,98768.42
2019-03-16T01:46:46.197Z,98766.03
2019-03-16T01:47:50.349Z,98774.90
2019-03-16T01:48:54.401Z,98768.95
2019-03-16T01:49:58.399Z,98770.50
2019-03-16T01:51:02.520Z,98772.66
2019-03-16T01:52:06.521Z,98775.66
2019-03-16T01:53:10.574Z,98777.00
2019-03-16T01:54:14.678Z,98779.89
2019-03-16T01:55:18.720Z,98782.37
2019-03-16T01:56:22.757Z,98787.89
2019-03-16T01:57:26.793Z,98789.77
2019-03-16T01:58:30.932Z,98787.41
2019-03-16T01:59:34.945Z,98794.70
2019-03-16T02:00:39.118Z,98796.86
2019-03-16T02:01:43.156Z,98795.80
2019-03-16T02:02:55.098Z,98795.80
2019-03-16T02:03:51.448Z,98802.23
2019-03-16T02:04:55.544Z,98796.33
2019-03-16T02:05:59.561Z,98789.05
2019-03-16T02:07:03.647Z,98800.20
2019-03-16T02:08:07.688Z,98798.28
2019-03-16T02:09:11.814Z,98803.56
2019-03-16T02:10:15.859Z,98803.65
2019-03-16T02:11:19.913Z,98805.80
2019-03-16T02:12:23.939Z,98799.39
2019-03-16T02:13:27.978Z,98798.81
2019-03-16T02:14:32.051Z,98805.37
2019-03-16T02:15:36.028Z,98805.44
2019-03-16T02:16:40.079Z,98805.96
2019-03-16T02:17:44.072Z,98807.02
2019-03-16T02:18:48.509Z,98806.72
2019-03-16T02:19:52.640Z,98805.24
2019-03-16T02:20:56.645Z,98810.75
2019-03-16T02:22:00.679Z,98807.77
2019-03-16T02:23:04.688Z,98818.61
2019-03-16T02:24:08.674Z,98818.94
2019-03-16T02:25:12.801Z,98820.33
2019-03-16T02:26:16.804Z,98813.56
2019-03-16T02:27:20.809Z,98822.25
2019-03-16T02:28:24.799Z,98814.38
2019-03-16T02:29:28.790Z,98818.46
2019-03-16T02:30:32.877Z,98816.06
2019-03-16T02:31:36.906Z,98818.70
2019-03-16T02:32:40.913Z,98812.22
2019-03-16T02:33:44.934Z,98816.83
2019-03-16T02:34:48.961Z,98815.78
2019-03-16T02:35:53.035Z,98812.80
2019-03-16T02:36:57.037Z,98824.41
2019-03-16T02:38:01.050Z,98827.37
2019-03-16T02:39:06.404Z,98822.30
2019-03-16T02:40:10.460Z,98822.63
2019-03-16T02:41:14.579Z,98828.28
2019-03-16T02:42:18.674Z,98826.65
2019-03-16T02:43:22.728Z,98827.23
2019-03-16T02:44:26.836Z,98827.52
2019-03-16T02:45:30.877Z,98829.67
2019-03-16T02:46:35.107Z,98829.96
2019-03-16T02:47:39.238Z,98831.06
2019-03-16T02:48:43.269Z,98832.50
2019-03-16T02:49:47.373Z,98839.25
2019-03-16T02:50:51.443Z,98835.76
2019-03-16T02:51:55.519Z,98836.28
2019-03-16T02:52:59.563Z,98837.16
2019-03-16T02:54:03.624Z,98840.02
2019-03-16T02:55:08.468Z,98836.15
2019-03-16T02:56:12.518Z,98839.70
2019-03-16T02:57:16.622Z,98838.68
2019-03-16T02:58:20.706Z,98839.64
2019-03-16T02:59:24.749Z,98836.44
2019-03-16T03:00:28.761Z,98844.48
2019-03-16T03:01:32.821Z,98842.70
2019-03-16T03:02:36.857Z,98850.44
2019-03-16T03:03:40.910Z,98856.17
2019-03-16T03:04:46.218Z,98851.05
2019-03-16T03:05:49.037Z,98853.55
2019-03-16T03:06:53.059Z,98861.59
2019-03-16T03:07:57.216Z,98866.73
2019-03-16T03:09:01.280Z,98867.02
2019-03-16T03:10:06.281Z,98863.65
2019-03-16T03:11:10.296Z,98858.37
2019-03-16T03:12:14.428Z,98860.02
2019-03-16T03:13:18.518Z,98856.56
2019-03-16T03:14:22.528Z,98856.90
2019-03-16T03:15:26.610Z,98858.85
2019-03-16T03:16:30.623Z,98866.58
2019-03-16T03:17:34.684Z,98867.23
2019-03-16T03:18:38.738Z,98864.41
2019-03-16T03:19:42.766Z,98871.41
2019-03-16T03:20:46.861Z,98865.16
2019-03-16T03:21:50.872Z,98864.41
2019-03-16T03:22:54.911Z,98857.55
2019-03-16T03:23:58.987Z,98862.83
2019-03-16T03:25:03.072Z,98872.22
2019-03-16T03:26:07.173Z,98871.98
2019-03-16T03:27:11.215Z,98857.64
2019-03-16T03:28:15.224Z,98865.80
2019-03-16T03:29:19.458Z,98870.94
2019-03-16T03:30:23.503Z,98868.05
2019-03-16T03:31:27.494Z,98875.34
2019-03-16T03:32:31.547Z,98870.50
2019-03-16T03:33:57.383Z,98874.52
2019-03-16T03:34:39.710Z,98880.99
2019-03-16T03:35:43.716Z,98876.44
2019-03-16T03:36:47.762Z,98874.34
2019-03-16T03:37:51.802Z,98875.69
2019-03-16T03:38:55.856Z,98881.66
2019-03-16T03:39:59.923Z,98880.81
2019-03-16T03:41:04.014Z,98879.80
2019-03-16T03:42:08.128Z,98882.77
2019-03-16T03:43:12.172Z,98893.27
2019-03-16T03:44:16.181Z,98884.17
2019-03-16T03:45:20.338Z,98887.90
2019-03-16T03:46:24.491Z,98889.53
2019-03-16T03:47:28.538Z,98880.67
2019-03-16T03:48:32.621Z,98892.80
2019-03-16T03:49:36.626Z,98884.75
2019-03-16T03:50:40.706Z,98885.80
2019-03-16T03:51:44.761Z,98886.38
2019-03-16T03:52:48.807Z,98892.03
2019-03-16T03:53:52.812Z,98897.41
2019-03-16T03:54:56.938Z,98897.72
2019-03-16T03:56:01.313Z,98897.72
2019-03-16T03:57:05.402Z,98902.56
2019-03-16T03:58:09.511Z,98899.59
2019-03-16T03:59:13.620Z,98902.05
2019-03-16T04:00:17.699Z,98901.23
2019-03-16T04:01:21.840Z,98900.17
2019-03-16T04:02:25.930Z,98899.36
2019-03-16T04:03:29.986Z,98901.23
2019-03-16T04:04:34.153Z,98900.47
2019-03-16T04:05:38.325Z,98909.34
2019-03-16T04:06:42.472Z,98908.81
2019-03-16T04:07:46.497Z,98908.58
2019-03-16T04:08:50.661Z,98910.97
2019-03-16T04:09:54.751Z,98903.20
2019-03-16T04:10:58.903Z,98910.20
2019-03-16T04:12:02.923Z,98911.84
2019-03-16T04:13:06.970Z,98899.94
2019-03-16T04:14:10.993Z,98908.95
2019-03-16T04:15:15.174Z,98909.86
2019-03-16T04:16:19.298Z,98903.97
2019-03-16T04:17:23.366Z,98904.55
2019-03-16T04:18:27.401Z,98908.81
2019-03-16T04:19:31.425Z,98906.94
2019-03-16T04:20:35.531Z,98912.16
2019-03-16T04:21:39.674Z,98919.92
2019-03-16T04:22:43.704Z,98914.03
2019-03-16T04:23:47.706Z,98919.11
2019-03-16T04:24:51.785Z,98926.05
2019-03-16T04:25:55.864Z,98930.38
2019-03-16T04:27:15.096Z,98927.98
2019-03-16T04:28:04.241Z,98922.50
2019-03-16T04:29:08.354Z,98925.62
2019-03-16T04:30:12.572Z,98932.94
2019-03-16T04:31:16.657Z,98930.55
2019-03-16T04:32:20.782Z,98938.89
2019-03-16T04:33:24.811Z,98944.03
2019-03-16T04:34:29.893Z,98940.53
2019-03-16T04:35:32.978Z,98944.03
2019-03-16T04:36:37.235Z,98948.58
2019-03-16T04:37:41.379Z,98950.21
2019-03-16T04:38:45.404Z,98951.02
2019-03-16T04:39:49.453Z,98948.87
2019-03-16T04:40:53.547Z,98953.48
2019-03-16T04:41:57.535Z,98946.77
2019-03-16T04:43:01.603Z,98960.48
2019-03-16T04:44:05.619Z,98948.87
2019-03-16T04:45:16.307Z,98961.53
2019-03-16T04:46:20.329Z,98964.02
2019-03-16T04:47:24.366Z,98970.20
2019-03-16T04:48:28.423Z,98965.12
2019-03-16T04:49:32.433Z,98971.83
2019-03-16T04:50:36.604Z,98972.06
2019-03-16T04:51:40.673Z,98977.20
2019-03-16T04:52:45.721Z,98979.59
2019-03-16T04:53:49.859Z,98969.29
2019-03-16T04:54:53.876Z,98978.02
2019-03-16T04:55:57.889Z,98982.27
2019-03-16T04:57:01.949Z,98984.43
2019-03-16T04:58:05.968Z,98988.45
2019-03-16T04:59:10.058Z,98992.48
2019-03-16T05:00:14.246Z,98993.01
2019-03-16T05:01:18.388Z,98987.55
2019-03-16T05:02:22.414Z,98993.30
2019-03-16T05:03:26.446Z,98991.87
2019-03-16T05:04:41.984Z,98994.35
2019-03-16T05:05:34.593Z,98999.39
2019-03-16T05:06:38.807Z,98997.03
2019-03-16T05:07:43.844Z,98996.80
2019-03-16T05:08:47.906Z,99006.02
2019-03-16T05:09:52.027Z,99000.02
2019-03-16T05:10:56.030Z,99000.83
2019-03-16T05:12:00.030Z,99004.63
2019-03-16T05:13:04.110Z,98993.73
2019-03-16T05:14:08.173Z,99000.02
2019-03-16T05:15:12.372Z,99007.12
2019-03-16T05:16:16.414Z,99009.38
2019-03-16T05:17:20.467Z,99012.36
2019-03-16T05:18:24.483Z,99004.16
2019-03-16T05:19:28.588Z,99010.63
2019-03-16T05:20:32.655Z,99012.36
2019-03-16T05:21:36.769Z,99020.88
2019-03-16T05:22:40.948Z,99014.75
2019-03-16T05:23:44.956Z,99017.58
2019-03-16T05:24:48.969Z,99021.86
2019-03-16T05:25:53.041Z,99021.92
2019-03-16T05:26:57.064Z,99024.54
2019-03-16T05:28:01.075Z,99029.24
2019-03-16T05:29:05.169Z,99030.88
2019-03-16T05:30:10.500Z,99033.33
2019-03-16T05:31:14.674Z,99026.09
2019-03-16T05:32:18.855Z,99031.93
2019-03-16T05:33:22.938Z,99033.56
2019-03-16T05:34:27.005Z,99037.44
2019-03-16T05:35:31.186Z,99035.86
2019-03-16T05:36:35.374Z,99045.17
2019-03-16T05:37:39.386Z,99039.28
2019-03-16T05:38:43.491Z,99043.61
2019-03-16T05:39:48.064Z,99047.92
2019-03-16T05:40:52.228Z,99045.33
2019-03-16T05:41:56.505Z,99032.44
2019-03-16T05:43:00.707Z,99043.39
2019-03-16T05:44:04.756Z,99050.39
2019-03-16T05:45:08.898Z,99053.70
2019-03-16T05:46:12.945Z,99052.94
2019-03-16T05:47:17.046Z,99050.55
2019-03-16T05:48:21.162Z,99056.80
2019-03-16T05:49:25.218Z,99056.80
2019-03-16T05:50:29.300Z,99057.70
2019-03-16T05:51:33.550Z,99062.90
2019-03-16T05:52:37.710Z,99064.18
2019-03-16T05:53:41.778Z,99067.98
2019-03-16T05:54:45.846Z,99064.63
2019-03-16T05:55:49.980Z,99073.11
2019-03-16T05:56:53.981Z,99074.25
2019-03-16T05:57:58.380Z,99073.94
2019-03-16T05:59:02.430Z,99077.09
2019-03-16T06:00:09.722Z,99073.13
2019-03-16T06:01:11.859Z,99081.57
2019-03-16T06:02:15.932Z,99081.63
2019-03-16T06:03:20.066Z,99087.68
2019-03-16T06:04:24.126Z,99088.03
2019-03-16T06:08:51.232Z,99088.02
2019-03-16T06:09:55.278Z,99092.10
2019-03-16T06:10:59.365Z,99091.16
2019-03-16T06:12:03.458Z,99094.27
2019-03-16T06:13:07.456Z,99094.27
2019-03-16T06:14:11.604Z,99097.03
2019-03-16T06:15:15.708Z,99094.18
2019-03-16T06:16:19.777Z,99091.96
2019-03-16T06:17:23.861Z,99095.52
2019-03-16T06:18:27.935Z,99098.06
2019-03-16T06:19:32.058Z,99099.23
2019-03-16T06:20:36.159Z,99098.06
2019-03-16T06:21:40.249Z,99104.02
2019-03-16T06:22:44.298Z,99098.20
2019-03-16T06:23:48.333Z,99102.91
2019-03-16T06:24:52.433Z,99099.49
2019-03-16T06:25:56.462Z,99101.71
2019-03-16T06:27:00.598Z,99106.12
2019-03-16T06:28:04.689Z,99108.19
2019-03-16T06:29:08.691Z,99108.81
2019-03-16T06:30:13.202Z,99111.32
2019-03-16T06:31:17.212Z,99112.23
2019-03-16T06:32:21.257Z,99107.80
2019-03-16T06:33:25.298Z,99116.06
2019-03-16T06:34:29.314Z,99112.17
2019-03-16T06:35:33.361Z,99119.47
2019-03-16T06:36:37.390Z,99122.89
2019-03-16T06:37:41.579Z,99125.63
2019-03-16T06:38:45.592Z,99121.66
2019-03-16T06:39:49.708Z,99123.14
2019-03-16T06:40:53.867Z,99125.66
2019-03-16T06:41:57.885Z,99125.55
2019-03-16T06:43:01.860Z,99127.90
2019-03-16T06:44:05.927Z,99135.05
2019-03-16T06:45:10.093Z,99131.17
2019-03-16T06:46:14.158Z,99126.08
2019-03-16T06:47:18.348Z,99135.16
2019-03-16T06:48:22.430Z,99135.45
2019-03-16T06:49:26.567Z,99133.66
2019-03-16T06:50:30.632Z,99133.48
2019-03-16T06:51:34.826Z,99134.29
2019-03-16T06:52:38.943Z,99137.73
2019-03-16T06:53:42.988Z,99138.77
2019-03-16T06:54:47.025Z,99138.32
2019-03-16T06:55:51.275Z,99145.34
2019-03-16T06:56:55.497Z,99142.06
2019-03-16T06:57:59.672Z,99146.39
2019-03-16T06:59:03.812Z,99152.58
2019-03-16T07:00:08.695Z,99157.72
2019-03-16T07:01:12.945Z,99158.92
2019-03-16T07:02:17.052Z,99166.98
2019-03-16T07:03:21.365Z,99163.24
2019-03-16T07:04:25.581Z,99173.05
2019-03-16T07:05:38.213Z,99167.23
2019-03-16T07:06:34.021Z,99164.70
2019-03-16T07:07:38.178Z,99174.72
2019-03-16T07:08:42.306Z,99170.02
2019-03-16T07:09:46.394Z,99175.74
2019-03-16T07:10:50.581Z,99175.59
2019-03-16T07:11:54.628Z,99176.65
2019-03-16T07:12:59.437Z,99180.97
2019-03-16T07:14:03.651Z,99182.22
2019-03-16T07:15:08.383Z,99190.88
2019-03-16T07:16:12.487Z,99186.60
2019-03-16T07:17:16.630Z,99192.27
2019-03-16T07:18:20.976Z,99188.08
2019-03-16T07:19:25.084Z,99192.65
2019-03-16T07:20:29.164Z,99191.51
2019-03-16T07:21:33.228Z,99196.59
2019-03-16T07:22:37.356Z,99197.37
2019-03-16T07:23:41.410Z,99198.95
2019-03-16T07:24:45.496Z,99198.84
2019-03-16T07:25:49.590Z,99202.46
2019-03-16T07:26:53.791Z,99204.62
2019-03-16T07:27:57.872Z,99209.70
2019-03-16T07:29:02.044Z,99212.97
2019-03-16T07:30:06.254Z,99211.05
2019-03-16T07:31:10.310Z,99214.70
2019-03-16T07:32:14.361Z,99215.99
2019-03-16T07:33:18.533Z,99216.39
2019-03-16T07:34:22.632Z,99219.51
2019-03-16T07:35:26.683Z,99221.14
2019-03-16T07:36:30.718Z,99218.64
2019-03-16T07:37:34.731Z,99218.34
2019-03-16T07:38:38.755Z,99223.44
2019-03-16T07:39:43.003Z,99219.89
2019-03-16T07:40:47.102Z,99232.66
2019-03-16T07:41:51.189Z,99228.02
2019-03-16T07:42:55.370Z,99226.91
2019-03-16T07:43:59.434Z,99230.13
2019-03-16T07:45:08.574Z,99228.02
2019-03-16T07:46:07.912Z,99239.30
2019-03-16T07:47:12.186Z,99230.70
2019-03-16T07:48:16.438Z,99236.42
2019-03-16T07:49:20.602Z,99241.61
2019-03-16T07:50:24.874Z,99245.37
2019-03-16T07:51:28.959Z,99237.95
2019-03-16T07:52:33.087Z,99239.02
2019-03-16T07:53:37.185Z,99233.50
2019-03-16T07:54:41.269Z,99231.08
2019-03-16T07:55:45.444Z,99237.33
2019-03-16T07:56:49.495Z,99237.52
2019-03-16T07:57:53.570Z,99235.69
2019-03-16T07:58:57.611Z,99231.94
2019-03-16T08:00:01.701Z,99232.81
2019-03-16T08:01:05.889Z,99238.73
2019-03-16T08:02:10.105Z,99240.84
2019-03-16T08:03:14.254Z,99234.21
2019-03-16T08:04:18.400Z,99241.47
2019-03-16T08:05:22.524Z,99236.91
2019-03-16T08:06:26.642Z,99248.14
2019-03-16T08:07:30.770Z,99244.24
2019-03-16T08:08:34.841Z,99250.12
2019-03-16T08:09:38.926Z,99250.98
2019-03-16T08:10:43.075Z,99245.59
2019-03-16T08:11:47.203Z,99246.92
2019-03-16T08:12:51.352Z,99243.95
2019-03-16T08:13:55.525Z,99248.81
2019-03-16T08:14:59.618Z,99261.16
2019-03-16T08:16:03.867Z,99243.30
2019-03-16T08:17:08.057Z,99256.36
2019-03-16T08:18:12.252Z,99260.86
2019-03-16T08:19:16.383Z,99263.84
2019-03-16T08:20:20.467Z,99264.54
2019-03-16T08:21:24.535Z,99265.69
2019-03-16T08:22:28.678Z,99262.30
2019-03-16T08:23:32.770Z,99266.63
2019-03-16T08:24:36.962Z,99270.23
2019-03-16T08:25:41.280Z,99272.09
2019-03-16T08:26:45.499Z,99272.35
2019-03-16T08:27:54.441Z,99272.75
2019-03-16T08:28:53.989Z,99281.69
2019-03-16T08:29:58.177Z,99276.78
2019-03-16T08:31:02.287Z,99279.14
2019-03-16T08:32:06.357Z,99283.47
2019-03-16T08:33:10.624Z,99285.35
2019-03-16T08:34:14.776Z,99290.50
2019-03-16T08:35:18.793Z,99281.55
2019-03-16T08:36:22.877Z,99278.47
2019-03-16T08:37:29.617Z,99284.97
2019-03-16T08:38:31.262Z,99283.58
2019-03-16T08:39:35.332Z,99283.98
2019-03-16T08:40:39.471Z,99281.66
2019-03-16T08:41:43.663Z,99279.47
2019-03-16T08:42:47.849Z,99282.06
2019-03-16T08:43:51.942Z,99278.52
2019-03-16T08:44:56.021Z,99289.93
2019-03-16T08:46:00.285Z,99290.41
2019-03-16T08:47:04.335Z,99287.07
2019-03-16T08:48:08.487Z,99296.91
2019-03-16T08:49:12.668Z,99298.36
2019-03-16T08:50:16.750Z,99306.03
2019-03-16T08:51:20.924Z,99308.09
2019-03-16T08:52:25.009Z,99301.98
2019-03-16T08:53:29.126Z,99308.56
2019-03-16T08:54:33.203Z,99306.39
2019-03-16T08:55:37.254Z,99309.23
2019-03-16T08:56:41.282Z,99313.95
2019-03-16T08:57:45.331Z,99316.27
2019-03-16T08:58:49.503Z,99312.14
2019-03-16T08:59:53.656Z,99309.63
2019-03-16T09:00:57.759Z,99318.01
2019-03-16T09:02:01.902Z,99314.14
2019-03-16T09:03:05.984Z,99323.55
2019-03-16T09:04:10.182Z,99324.44
2019-03-16T09:05:14.264Z,99324.78
2019-03-16T09:06:18.369Z,99325.36
2019-03-16T09:07:22.467Z,99329.63
2019-03-16T09:08:26.503Z,99335.52
2019-03-16T09:09:30.633Z,99329.73
2019-03-16T09:10:34.659Z,99335.67
2019-03-16T09:11:38.804Z,99339.16
2019-03-16T09:12:55.047Z,99327.41
2019-03-16T09:13:53.395Z,99335.14
2019-03-16T09:14:57.490Z,99333.06
2019-03-16T09:16:01.688Z,99336.14
2019-03-16T09:17:08.776Z,99334.41
2019-03-16T09:18:10.071Z,99338.91
2019-03-16T09:19:14.813Z,99333.62
2019-03-16T09:20:21.927Z,99338.30
2019-03-16T09:21:26.440Z,99338.67
2019-03-16T09:22:30.628Z,99342.80
2019-03-16T09:23:34.831Z,99339.78
2019-03-16T09:24:39.038Z,99347.42
2019-03-16T09:25:43.434Z,99343.20
2019-03-16T09:26:47.718Z,99343.33
2019-03-16T09:27:52.013Z,99337.92
2019-03-16T09:29:00.297Z,99339.28
2019-03-16T09:30:00.504Z,99345.59
2019-03-16T09:31:05.041Z,99343.84
2019-03-16T09:32:09.309Z,99345.44
2019-03-16T09:33:13.854Z,99346.86
2019-03-16T09:34:18.094Z,99346.04
2019-03-16T09:35:25.306Z,99347.30
2019-03-16T09:36:29.405Z,99348.33
2019-03-16T09:37:33.517Z,99354.12
2019-03-16T09:38:44.105Z,99353.81
2019-03-16T09:39:48.191Z,99356.25
2019-03-16T09:40:52.283Z,99358.23
2019-03-16T09:41:56.399Z,99365.05
2019-03-16T09:43:00.452Z,99355.25
2019-03-16T09:44:05.009Z,99358.36
2019-03-16T09:45:09.593Z,99353.06
2019-03-16T09:46:13.735Z,99358.53
2019-03-16T09:47:17.957Z,99355.77
2019-03-16T09:48:22.043Z,99357.88
2019-03-16T09:49:26.160Z,99359.97
2019-03-16T09:50:30.237Z,99355.52
2019-03-16T09:51:34.277Z,99358.28
2019-03-16T09:52:38.453Z,99359.70
2019-03-16T09:53:42.602Z,99358.45
2019-03-16T09:54:46.753Z,99359.33
2019-03-16T09:55:50.841Z,99360.57
2019-03-16T09:57:01.071Z,99354.22
2019-03-16T09:57:59.236Z,99356.45
2019-03-16T09:59:03.332Z,99359.82
2019-03-16T10:00:09.218Z,99368.06
2019-03-16T10:01:15.362Z,99362.09
2019-03-16T10:02:17.425Z,99367.70
2019-03-16T10:03:21.691Z,99362.93
2019-03-16T10:04:25.923Z,99366.34
2019-03-16T10:05:29.985Z,99363.94
2019-03-16T10:06:34.077Z,99371.88
2019-03-16T10:07:38.234Z,99370.33
2019-03-16T10:08:42.394Z,99372.25
2019-03-16T10:09:46.442Z,99376.56
2019-03-16T10:10:50.702Z,99375.30
2019-03-16T10:11:54.745Z,99384.41
2019-03-16T10:12:58.881Z,99390.33
2019-03-16T10:14:03.227Z,99385.87
2019-03-16T10:15:07.558Z,99387.08
2019-03-16T10:16:11.689Z,99390.48
2019-03-16T10:17:15.827Z,99395.14
2019-03-16T10:18:19.956Z,99390.76
2019-03-16T10:19:24.771Z,99393.48
2019-03-16T10:20:28.845Z,99405.31
2019-03-16T10:21:33.005Z,99411.57
2019-03-16T10:22:37.240Z,99406.00
2019-03-16T10:23:41.419Z,99409.37
2019-03-16T10:24:45.646Z,99411.84
2019-03-16T10:25:49.720Z,99418.70
2019-03-16T10:26:53.802Z,99414.15
2019-03-16T10:27:57.969Z,99416.00
2019-03-16T10:29:02.008Z,99415.05
2019-03-16T10:30:08.098Z,99425.99
2019-03-16T10:31:12.261Z,99415.91
2019-03-16T10:32:16.363Z,99418.86
2019-03-16T10:33:20.454Z,99421.97
2019-03-16T10:34:24.523Z,99421.08
2019-03-16T10:35:28.671Z,99420.80
2019-03-16T10:36:32.828Z,99419.06
2019-03-16T10:37:37.036Z,99415.92
2019-03-16T10:38:41.131Z,99419.77
2019-03-16T10:39:45.186Z,99427.89
2019-03-16T10:40:49.421Z,99428.19
2019-03-16T10:41:53.590Z,99427.09
2019-03-16T10:42:57.643Z,99415.84
2019-03-16T10:44:01.672Z,99420.73
2019-03-16T10:45:06.454Z,99421.55
2019-03-16T10:46:10.801Z,99423.77
2019-03-16T10:47:14.925Z,99421.60
2019-03-16T10:48:18.993Z,99424.33
2019-03-16T10:49:23.063Z,99427.13
2019-03-16T10:50:27.130Z,99430.16
2019-03-16T10:51:31.276Z,99425.58
2019-03-16T10:52:35.388Z,99426.92
2019-03-16T10:53:39.441Z,99425.64
2019-03-16T10:54:43.567Z,99423.78
2019-03-16T10:55:47.685Z,99425.79
2019-03-16T10:56:51.979Z,99426.91
2019-03-16T10:57:56.036Z,99419.44
2019-03-16T10:59:00.165Z,99423.22
2019-03-16T11:00:04.541Z,99424.77
2019-03-16T11:01:08.761Z,99423.52
2019-03-16T11:02:13.150Z,99435.23
2019-03-16T11:03:17.214Z,99427.91
2019-03-16T11:04:21.290Z,99431.11
2019-03-16T11:05:25.375Z,99428.47
2019-03-16T11:06:29.497Z,99428.91
2019-03-16T11:07:33.649Z,99432.28
2019-03-16T11:08:37.800Z,99430.59
2019-03-16T11:09:41.946Z,99435.88
2019-03-16T11:10:46.096Z,99437.53
2019-03-16T11:11:50.192Z,99437.27
2019-03-16T11:12:54.293Z,99449.11
2019-03-16T11:13:58.419Z,99454.55
2019-03-16T11:15:02.517Z,99453.58
2019-03-16T11:16:06.607Z,99451.06
2019-03-16T11:17:10.719Z,99452.56
2019-03-16T11:18:14.915Z,99451.36
2019-03-16T11:19:19.020Z,99454.72
2019-03-16T11:20:23.065Z,99454.27
2019-03-16T11:21:27.215Z,99454.75
2019-03-16T11:22:31.446Z,99450.73
2019-03-16T11:23:35.534Z,99455.93
2019-03-16T11:24:39.582Z,99455.31
2019-03-16T11:25:43.621Z,99456.19
2019-03-16T11:26:47.678Z,99458.16
2019-03-16T11:27:51.836Z,99455.08
2019-03-16T11:29:04.540Z,99456.06
2019-03-16T11:30:00.019Z,99463.22
2019-03-16T11:31:04.093Z,99462.36
2019-03-16T11:32:08.163Z,99460.14
2019-03-16T11:33:12.245Z,99458.19
2019-03-16T11:34:16.348Z,99469.69
2019-03-16T11:35:20.346Z,99463.98
2019-03-16T11:36:24.413Z,99469.20
2019-03-16T11:37:28.540Z,99475.78
2019-03-16T11:38:32.627Z,99473.36
2019-03-16T11:39:36.878Z,99464.48
2019-03-16T11:40:40.949Z,99476.44
2019-03-16T11:41:45.171Z,99469.73
2019-03-16T11:42:49.258Z,99466.33
2019-03-16T11:43:53.252Z,99472.27
2019-03-16T11:44:57.358Z,99473.44
2019-03-16T11:46:01.467Z,99471.82
2019-03-16T11:47:05.623Z,99483.98
2019-03-16T11:48:09.743Z,99481.28
2019-03-16T11:49:13.777Z,99486.94
2019-03-16T11:50:17.986Z,99480.32
2019-03-16T11:51:22.024Z,99473.46
2019-03-16T11:52:26.126Z,99483.55
2019-03-16T11:53:30.227Z,99483.13
2019-03-16T11:54:34.330Z,99487.74
2019-03-16T11:55:38.459Z,99490.34
2019-03-16T11:56:42.542Z,99487.71
2019-03-16T11:57:46.634Z,99490.18
2019-03-16T11:58:50.792Z,99489.84
2019-03-16T11:59:54.825Z,99491.87
2019-03-16T12:00:58.957Z,99496.66
2019-03-16T12:02:05.453Z,99497.73
2019-03-16T12:03:07.262Z,99496.92
2019-03-16T12:04:11.411Z,99499.08
2019-03-16T12:05:15.449Z,99509.02
2019-03-16T12:06:19.590Z,99505.59
2019-03-16T12:07:23.693Z,99501.86
2019-03-16T12:08:27.722Z,99503.55
2019-03-16T12:09:31.749Z,99500.91
2019-03-16T12:10:35.813Z,99509.62
2019-03-16T12:11:39.894Z,99502.77
2019-03-16T12:12:44.022Z,99513.36
2019-03-16T12:13:48.037Z,99511.89
2019-03-16T12:14:52.136Z,99516.52
2019-03-16T12:15:56.191Z,99519.31
2019-03-16T12:17:00.244Z,99514.22
2019-03-16T12:18:04.237Z,99513.81
2019-03-16T12:19:08.418Z,99514.91
2019-03-16T12:20:12.558Z,99512.00
2019-03-16T12:21:16.643Z,99512.22
2019-03-16T12:22:20.737Z,99518.05
2019-03-16T12:23:24.811Z,99514.03
2019-03-16T12:24:28.901Z,99518.05
2019-03-16T12:25:32.989Z,99516.88
2019-03-16T12:26:37.083Z,99515.03
2019-03-16T12:27:41.173Z,99518.88
2019-03-16T12:28:45.248Z,99515.42
2019-03-16T12:29:49.302Z,99521.32
2019-03-16T12:30:53.491Z,99518.05
2019-03-16T12:31:57.557Z,99519.87
2019-03-16T12:33:01.684Z,99517.73
2019-03-16T12:34:05.709Z,99516.39
2019-03-16T12:35:09.868Z,99530.33
2019-03-16T12:36:14.030Z,99525.88
2019-03-16T12:37:18.232Z,99524.58